sensor_id;sensor_type;location;lat;lon;timestamp;pressure;altitude;pressure_sealevel;temperature;humidity
59194;BME280;44967;48.598;15.650;2024-01-10T00:02:23;99677.25;;;-9.28;72.83
59194;BME280;44967;48.598;15.650;2024-01-10T00:04:49;99681.56;;;-9.27;72.67
59194;BME280;44967;48.598;15.650;2024-01-10T00:07:15;99674.22;;;-9.23;72.29
59194;BME280;44967;48.598;15.650;2024-01-10T00:09:40;99677.66;;;-9.22;72.07
59194;BME280;44967;48.598;15.650;2024-01-10T00:12:07;99682.19;;;-9.18;71.74
59194;BME280;44967;48.598;15.650;2024-01-10T00:14:32;99679.53;;;-9.20;72.01
59194;BME280;44967;48.598;15.650;2024-01-10T00:16:58;99679.00;;;-9.27;72.30
59194;BME280;44967;48.598;15.650;2024-01-10T00:19:24;99675.47;;;-9.29;72.69
59194;BME280;44967;48.598;15.650;2024-01-10T00:21:50;99671.13;;;-9.30;72.71
59194;BME280;44967;48.598;15.650;2024-01-10T00:24:16;99665.81;;;-9.33;73.03
59194;BME280;44967;48.598;15.650;2024-01-10T00:26:41;99669.47;;;-9.30;72.77
59194;BME280;44967;48.598;15.650;2024-01-10T00:29:07;99668.44;;;-9.32;72.39
59194;BME280;44967;48.598;15.650;2024-01-10T00:31:33;99662.47;;;-9.44;73.10
59194;BME280;44967;48.598;15.650;2024-01-10T00:33:59;99672.00;;;-9.30;73.66
59194;BME280;44967;48.598;15.650;2024-01-10T00:36:24;99669.97;;;-9.22;73.18
59194;BME280;44967;48.598;15.650;2024-01-10T00:38:50;99677.25;;;-9.28;72.78
59194;BME280;44967;48.598;15.650;2024-01-10T00:41:16;99667.72;;;-9.42;73.27
59194;BME280;44967;48.598;15.650;2024-01-10T00:43:42;99674.06;;;-9.37;73.45
59194;BME280;44967;48.598;15.650;2024-01-10T00:46:08;99675.59;;;-9.39;73.18
59194;BME280;44967;48.598;15.650;2024-01-10T00:48:33;99673.47;;;-9.33;73.10
59194;BME280;44967;48.598;15.650;2024-01-10T00:51:00;99675.56;;;-9.28;72.63
59194;BME280;44967;48.598;15.650;2024-01-10T00:53:27;99667.78;;;-9.29;72.19
59194;BME280;44967;48.598;15.650;2024-01-10T00:55:54;99675.47;;;-9.29;72.74
59194;BME280;44967;48.598;15.650;2024-01-10T00:58:20;99672.91;;;-9.29;72.73
59194;BME280;44967;48.598;15.650;2024-01-10T01:00:46;99668.50;;;-9.43;73.15
59194;BME280;44967;48.598;15.650;2024-01-10T01:03:12;99668.25;;;-9.35;73.26
59194;BME280;44967;48.598;15.650;2024-01-10T01:05:39;99672.47;;;-9.35;72.82
59194;BME280;44967;48.598;15.650;2024-01-10T01:08:06;99672.63;;;-9.45;73.20
59194;BME280;44967;48.598;15.650;2024-01-10T01:10:33;99671.53;;;-9.49;73.63
59194;BME280;44967;48.598;15.650;2024-01-10T01:12:59;99661.16;;;-9.39;73.22
59194;BME280;44967;48.598;15.650;2024-01-10T01:15:26;99670.44;;;-9.28;72.70
59194;BME280;44967;48.598;15.650;2024-01-10T01:17:52;99667.59;;;-9.44;72.79
59194;BME280;44967;48.598;15.650;2024-01-10T01:20:19;99663.38;;;-9.43;73.29
59194;BME280;44967;48.598;15.650;2024-01-10T01:22:45;99665.41;;;-9.51;73.35
59194;BME280;44967;48.598;15.650;2024-01-10T01:25:11;99661.50;;;-9.46;73.44
59194;BME280;44967;48.598;15.650;2024-01-10T01:27:36;99674.47;;;-9.31;73.11
59194;BME280;44967;48.598;15.650;2024-01-10T01:30:03;99670.66;;;-9.49;72.28
59194;BME280;44967;48.598;15.650;2024-01-10T01:32:28;99665.00;;;-9.57;73.03
59194;BME280;44967;48.598;15.650;2024-01-10T01:34:55;99673.03;;;-9.64;73.46
59194;BME280;44967;48.598;15.650;2024-01-10T01:37:21;99681.25;;;-9.57;73.04
59194;BME280;44967;48.598;15.650;2024-01-10T01:39:49;99677.25;;;-9.65;72.93
59194;BME280;44967;48.598;15.650;2024-01-10T01:42:16;99684.13;;;-9.52;73.33
59194;BME280;44967;48.598;15.650;2024-01-10T01:44:42;99676.13;;;-9.57;73.05
59194;BME280;44967;48.598;15.650;2024-01-10T01:47:08;99675.78;;;-9.61;73.50
59194;BME280;44967;48.598;15.650;2024-01-10T01:49:35;99676.00;;;-9.58;74.34
59194;BME280;44967;48.598;15.650;2024-01-10T01:52:03;99676.91;;;-9.58;74.12
59194;BME280;44967;48.598;15.650;2024-01-10T01:54:30;99669.88;;;-9.48;73.24
59194;BME280;44967;48.598;15.650;2024-01-10T01:56:57;99679.66;;;-9.55;72.57
59194;BME280;44967;48.598;15.650;2024-01-10T01:59:24;99680.44;;;-9.56;73.38
59194;BME280;44967;48.598;15.650;2024-01-10T02:01:52;99673.56;;;-9.57;73.42
59194;BME280;44967;48.598;15.650;2024-01-10T02:04:20;99670.53;;;-9.51;73.10
59194;BME280;44967;48.598;15.650;2024-01-10T02:06:46;99669.34;;;-9.56;72.74
59194;BME280;44967;48.598;15.650;2024-01-10T02:09:12;99666.88;;;-9.55;73.27
59194;BME280;44967;48.598;15.650;2024-01-10T02:11:37;99666.22;;;-9.52;72.59
59194;BME280;44967;48.598;15.650;2024-01-10T02:14:03;99668.22;;;-9.60;72.39
59194;BME280;44967;48.598;15.650;2024-01-10T02:16:29;99667.03;;;-9.65;73.36
59194;BME280;44967;48.598;15.650;2024-01-10T02:18:55;99666.34;;;-9.62;73.35
59194;BME280;44967;48.598;15.650;2024-01-10T02:21:21;99663.25;;;-9.70;73.28
59194;BME280;44967;48.598;15.650;2024-01-10T02:23:47;99656.78;;;-9.65;73.31
59194;BME280;44967;48.598;15.650;2024-01-10T02:26:14;99651.25;;;-9.71;73.48
59194;BME280;44967;48.598;15.650;2024-01-10T02:28:40;99656.56;;;-9.56;73.67
59194;BME280;44967;48.598;15.650;2024-01-10T02:31:06;99646.97;;;-9.59;73.54
59194;BME280;44967;48.598;15.650;2024-01-10T02:33:33;99650.44;;;-9.58;73.33
59194;BME280;44967;48.598;15.650;2024-01-10T02:35:59;99652.13;;;-9.70;72.30
59194;BME280;44967;48.598;15.650;2024-01-10T02:38:25;99652.78;;;-9.61;72.60
59194;BME280;44967;48.598;15.650;2024-01-10T02:40:52;99649.28;;;-9.50;72.57
59194;BME280;44967;48.598;15.650;2024-01-10T02:43:18;99642.34;;;-9.64;72.18
59194;BME280;44967;48.598;15.650;2024-01-10T02:45:43;99643.44;;;-9.61;72.87
59194;BME280;44967;48.598;15.650;2024-01-10T02:48:10;99647.88;;;-9.58;72.23
59194;BME280;44967;48.598;15.650;2024-01-10T02:50:35;99648.50;;;-9.49;72.23
59194;BME280;44967;48.598;15.650;2024-01-10T02:53:03;99655.94;;;-9.40;72.09
59194;BME280;44967;48.598;15.650;2024-01-10T02:55:29;99647.53;;;-9.63;71.64
59194;BME280;44967;48.598;15.650;2024-01-10T02:57:55;99646.28;;;-9.44;72.15
59194;BME280;44967;48.598;15.650;2024-01-10T03:00:20;99651.41;;;-9.44;71.59
59194;BME280;44967;48.598;15.650;2024-01-10T03:02:46;99652.88;;;-9.60;72.54
59194;BME280;44967;48.598;15.650;2024-01-10T03:05:12;99643.44;;;-9.61;72.18
59194;BME280;44967;48.598;15.650;2024-01-10T03:07:37;99648.13;;;-9.67;72.36
59194;BME280;44967;48.598;15.650;2024-01-10T03:10:04;99650.25;;;-9.73;72.81
59194;BME280;44967;48.598;15.650;2024-01-10T03:12:30;99653.38;;;-9.77;73.39
59194;BME280;44967;48.598;15.650;2024-01-10T03:14:56;99656.41;;;-9.94;72.92
59194;BME280;44967;48.598;15.650;2024-01-10T03:17:21;99648.63;;;-9.84;73.37
59194;BME280;44967;48.598;15.650;2024-01-10T03:19:47;99643.75;;;-9.92;73.44
59194;BME280;44967;48.598;15.650;2024-01-10T03:22:13;99645.72;;;-9.77;73.93
59194;BME280;44967;48.598;15.650;2024-01-10T03:24:39;99644.50;;;-9.82;73.79
59194;BME280;44967;48.598;15.650;2024-01-10T03:27:04;99645.94;;;-9.85;73.46
59194;BME280;44967;48.598;15.650;2024-01-10T03:29:30;99643.72;;;-9.81;73.94
59194;BME280;44967;48.598;15.650;2024-01-10T03:31:56;99642.19;;;-9.90;73.42
59194;BME280;44967;48.598;15.650;2024-01-10T03:34:22;99639.25;;;-9.83;73.56
59194;BME280;44967;48.598;15.650;2024-01-10T03:36:48;99639.38;;;-9.82;73.80
59194;BME280;44967;48.598;15.650;2024-01-10T03:39:13;99643.25;;;-9.75;73.53
59194;BME280;44967;48.598;15.650;2024-01-10T03:41:39;99635.47;;;-9.77;74.03
59194;BME280;44967;48.598;15.650;2024-01-10T03:44:05;99640.16;;;-9.83;73.93
59194;BME280;44967;48.598;15.650;2024-01-10T03:46:31;99626.16;;;-9.76;73.22
59194;BME280;44967;48.598;15.650;2024-01-10T03:48:57;99627.66;;;-9.67;73.24
59194;BME280;44967;48.598;15.650;2024-01-10T03:51:22;99627.78;;;-9.65;73.17
59194;BME280;44967;48.598;15.650;2024-01-10T03:53:49;99626.09;;;-9.65;73.39
59194;BME280;44967;48.598;15.650;2024-01-10T03:56:15;99631.34;;;-9.75;73.18
59194;BME280;44967;48.598;15.650;2024-01-10T03:58:41;99627.44;;;-9.70;72.96
59194;BME280;44967;48.598;15.650;2024-01-10T04:01:07;99627.97;;;-9.62;72.61
59194;BME280;44967;48.598;15.650;2024-01-10T04:03:35;99623.38;;;-9.55;72.98
59194;BME280;44967;48.598;15.650;2024-01-10T04:06:01;99615.06;;;-9.64;72.30
59194;BME280;44967;48.598;15.650;2024-01-10T04:08:28;99620.50;;;-9.59;72.49
59194;BME280;44967;48.598;15.650;2024-01-10T04:10:54;99613.72;;;-9.59;71.67
59194;BME280;44967;48.598;15.650;2024-01-10T04:13:20;99617.88;;;-9.61;72.10
59194;BME280;44967;48.598;15.650;2024-01-10T04:15:45;99617.66;;;-9.75;72.55
59194;BME280;44967;48.598;15.650;2024-01-10T04:18:12;99622.09;;;-9.97;72.85
59194;BME280;44967;48.598;15.650;2024-01-10T04:20:38;99615.72;;;-9.91;73.14
59194;BME280;44967;48.598;15.650;2024-01-10T04:23:04;99611.84;;;-9.97;74.30
59194;BME280;44967;48.598;15.650;2024-01-10T04:25:29;99613.06;;;-9.92;73.79
59194;BME280;44967;48.598;15.650;2024-01-10T04:27:56;99609.25;;;-10.22;74.81
59194;BME280;44967;48.598;15.650;2024-01-10T04:30:23;99612.53;;;-10.00;74.32
59194;BME280;44967;48.598;15.650;2024-01-10T04:32:49;99615.63;;;-9.92;73.28
59194;BME280;44967;48.598;15.650;2024-01-10T04:35:14;99613.59;;;-9.85;73.28
59194;BME280;44967;48.598;15.650;2024-01-10T04:37:40;99616.81;;;-9.87;72.98
59194;BME280;44967;48.598;15.650;2024-01-10T04:40:06;99606.16;;;-9.82;73.20
59194;BME280;44967;48.598;15.650;2024-01-10T04:42:32;99605.25;;;-9.82;72.67
59194;BME280;44967;48.598;15.650;2024-01-10T04:44:59;99612.34;;;-10.15;73.40
59194;BME280;44967;48.598;15.650;2024-01-10T04:47:25;99622.31;;;-10.06;74.49
59194;BME280;44967;48.598;15.650;2024-01-10T04:49:50;99620.84;;;-10.03;74.23
59194;BME280;44967;48.598;15.650;2024-01-10T04:52:16;99619.97;;;-10.03;74.22
59194;BME280;44967;48.598;15.650;2024-01-10T04:54:41;99610.66;;;-10.14;74.50
59194;BME280;44967;48.598;15.650;2024-01-10T04:57:07;99615.53;;;-10.06;74.75
59194;BME280;44967;48.598;15.650;2024-01-10T04:59:33;99616.28;;;-9.95;74.93
59194;BME280;44967;48.598;15.650;2024-01-10T05:02:00;99615.84;;;-9.89;73.87
59194;BME280;44967;48.598;15.650;2024-01-10T05:04:25;99614.28;;;-9.99;73.52
59194;BME280;44967;48.598;15.650;2024-01-10T05:06:51;99618.66;;;-10.10;73.36
59194;BME280;44967;48.598;15.650;2024-01-10T05:09:17;99608.94;;;-10.38;73.89
59194;BME280;44967;48.598;15.650;2024-01-10T05:11:43;99610.38;;;-10.30;75.22
59194;BME280;44967;48.598;15.650;2024-01-10T05:14:12;99610.22;;;-10.09;74.40
59194;BME280;44967;48.598;15.650;2024-01-10T05:16:38;99623.78;;;-10.10;74.34
59194;BME280;44967;48.598;15.650;2024-01-10T05:19:04;99625.75;;;-10.06;74.04
59194;BME280;44967;48.598;15.650;2024-01-10T05:21:33;99625.34;;;-10.12;74.16
59194;BME280;44967;48.598;15.650;2024-01-10T05:23:59;99620.72;;;-10.17;74.33
59194;BME280;44967;48.598;15.650;2024-01-10T05:26:24;99612.91;;;-10.19;74.19
59194;BME280;44967;48.598;15.650;2024-01-10T05:28:50;99618.44;;;-10.13;73.82
59194;BME280;44967;48.598;15.650;2024-01-10T05:31:16;99617.19;;;-9.94;74.03
59194;BME280;44967;48.598;15.650;2024-01-10T05:33:42;99615.31;;;-9.97;73.57
59194;BME280;44967;48.598;15.650;2024-01-10T05:36:09;99610.22;;;-10.09;73.83
59194;BME280;44967;48.598;15.650;2024-01-10T05:38:38;99612.00;;;-10.08;73.72
59194;BME280;44967;48.598;15.650;2024-01-10T05:41:05;99612.75;;;-9.97;74.08
59194;BME280;44967;48.598;15.650;2024-01-10T05:43:31;99606.78;;;-10.09;73.75
59194;BME280;44967;48.598;15.650;2024-01-10T05:45:58;99610.78;;;-10.13;73.92
59194;BME280;44967;48.598;15.650;2024-01-10T05:48:24;99615.22;;;-10.10;73.96
59194;BME280;44967;48.598;15.650;2024-01-10T05:50:50;99603.50;;;-10.20;74.07
59194;BME280;44967;48.598;15.650;2024-01-10T05:53:16;99602.06;;;-10.03;73.81
59194;BME280;44967;48.598;15.650;2024-01-10T05:55:45;99607.19;;;-10.28;74.28
59194;BME280;44967;48.598;15.650;2024-01-10T05:58:11;99610.28;;;-10.20;74.32
59194;BME280;44967;48.598;15.650;2024-01-10T06:00:37;99602.06;;;-10.28;74.24
59194;BME280;44967;48.598;15.650;2024-01-10T06:03:04;99605.16;;;-10.20;74.00
59194;BME280;44967;48.598;15.650;2024-01-10T06:05:29;99598.41;;;-10.31;74.88
59194;BME280;44967;48.598;15.650;2024-01-10T06:07:57;99605.81;;;-10.23;74.52
59194;BME280;44967;48.598;15.650;2024-01-10T06:10:22;99606.16;;;-10.18;75.00
59194;BME280;44967;48.598;15.650;2024-01-10T06:12:48;99607.34;;;-10.13;74.23
59194;BME280;44967;48.598;15.650;2024-01-10T06:15:14;99605.84;;;-9.98;74.44
59194;BME280;44967;48.598;15.650;2024-01-10T06:17:40;99607.50;;;-9.98;73.70
59194;BME280;44967;48.598;15.650;2024-01-10T06:20:06;99620.22;;;-10.12;74.14
59194;BME280;44967;48.598;15.650;2024-01-10T06:22:33;99612.28;;;-10.28;74.36
59194;BME280;44967;48.598;15.650;2024-01-10T06:24:58;99615.78;;;-10.14;74.70
59194;BME280;44967;48.598;15.650;2024-01-10T06:27:24;99621.34;;;-10.08;74.13
59194;BME280;44967;48.598;15.650;2024-01-10T06:29:50;99623.41;;;-10.03;74.12
59194;BME280;44967;48.598;15.650;2024-01-10T06:32:16;99624.59;;;-10.22;74.33
59194;BME280;44967;48.598;15.650;2024-01-10T06:34:41;99623.25;;;-10.17;74.29
59194;BME280;44967;48.598;15.650;2024-01-10T06:37:07;99621.78;;;-10.14;74.44
59194;BME280;44967;48.598;15.650;2024-01-10T06:39:33;99615.91;;;-10.13;73.60
59194;BME280;44967;48.598;15.650;2024-01-10T06:42:00;99618.50;;;-10.36;74.09
59194;BME280;44967;48.598;15.650;2024-01-10T06:44:26;99627.16;;;-10.22;74.77
59194;BME280;44967;48.598;15.650;2024-01-10T06:46:53;99630.94;;;-10.17;74.88
59194;BME280;44967;48.598;15.650;2024-01-10T06:49:19;99634.94;;;-10.21;73.58
59194;BME280;44967;48.598;15.650;2024-01-10T06:51:45;99638.28;;;-10.33;74.94
59194;BME280;44967;48.598;15.650;2024-01-10T06:54:11;99641.38;;;-10.37;75.12
59194;BME280;44967;48.598;15.650;2024-01-10T06:56:36;99637.72;;;-10.29;75.25
59194;BME280;44967;48.598;15.650;2024-01-10T06:59:02;99642.25;;;-10.25;75.39
59194;BME280;44967;48.598;15.650;2024-01-10T07:01:28;99636.72;;;-10.31;75.03
59194;BME280;44967;48.598;15.650;2024-01-10T07:03:54;99638.41;;;-10.32;75.15
59194;BME280;44967;48.598;15.650;2024-01-10T07:06:21;99636.22;;;-10.14;75.08
59194;BME280;44967;48.598;15.650;2024-01-10T07:08:49;99637.09;;;-10.14;74.86
59194;BME280;44967;48.598;15.650;2024-01-10T07:11:16;99635.56;;;-10.12;74.41
59194;BME280;44967;48.598;15.650;2024-01-10T07:13:42;99634.88;;;-10.09;76.01
59194;BME280;44967;48.598;15.650;2024-01-10T07:16:09;99631.75;;;-9.93;75.54
59194;BME280;44967;48.598;15.650;2024-01-10T07:18:35;99640.19;;;-9.94;75.20
59194;BME280;44967;48.598;15.650;2024-01-10T07:21:01;99638.72;;;-9.91;74.81
59194;BME280;44967;48.598;15.650;2024-01-10T07:23:27;99640.53;;;-10.02;74.56
59194;BME280;44967;48.598;15.650;2024-01-10T07:25:53;99647.06;;;-9.93;74.51
59194;BME280;44967;48.598;15.650;2024-01-10T07:28:19;99639.94;;;-9.86;74.99
59194;BME280;44967;48.598;15.650;2024-01-10T07:30:45;99643.38;;;-9.85;75.23
59194;BME280;44967;48.598;15.650;2024-01-10T07:33:12;99639.63;;;-9.90;74.85
59194;BME280;44967;48.598;15.650;2024-01-10T07:35:38;99642.47;;;-9.74;74.92
59194;BME280;44967;48.598;15.650;2024-01-10T07:38:05;99645.00;;;-9.63;74.92
59194;BME280;44967;48.598;15.650;2024-01-10T07:40:34;99646.28;;;-9.44;75.01
59194;BME280;44967;48.598;15.650;2024-01-10T07:43:01;99643.41;;;-9.49;74.77
59194;BME280;44967;48.598;15.650;2024-01-10T07:45:28;99642.81;;;-9.45;74.58
59194;BME280;44967;48.598;15.650;2024-01-10T07:47:54;99648.16;;;-9.42;74.53
59194;BME280;44967;48.598;15.650;2024-01-10T07:50:20;99649.97;;;-9.28;74.93
59194;BME280;44967;48.598;15.650;2024-01-10T07:52:46;99643.25;;;-9.14;73.99
59194;BME280;44967;48.598;15.650;2024-01-10T07:55:12;99645.41;;;-9.07;74.15
59194;BME280;44967;48.598;15.650;2024-01-10T07:57:38;99649.84;;;-9.04;74.45
59194;BME280;44967;48.598;15.650;2024-01-10T08:00:05;99657.00;;;-9.12;74.70
59194;BME280;44967;48.598;15.650;2024-01-10T08:02:33;99650.16;;;-9.00;74.61
59194;BME280;44967;48.598;15.650;2024-01-10T08:05:00;99648.59;;;-8.98;73.69
59194;BME280;44967;48.598;15.650;2024-01-10T08:07:26;99651.16;;;-8.98;74.49
59194;BME280;44967;48.598;15.650;2024-01-10T08:09:52;99657.78;;;-8.88;74.81
59194;BME280;44967;48.598;15.650;2024-01-10T08:12:18;99661.56;;;-8.70;74.48
59194;BME280;44967;48.598;15.650;2024-01-10T08:14:44;99650.06;;;-8.50;74.66
59194;BME280;44967;48.598;15.650;2024-01-10T08:17:15;99653.31;;;-8.40;74.54
59194;BME280;44967;48.598;15.650;2024-01-10T08:19:41;99650.81;;;-8.25;74.00
59194;BME280;44967;48.598;15.650;2024-01-10T08:22:07;99648.38;;;-8.24;72.81
59194;BME280;44967;48.598;15.650;2024-01-10T08:24:33;99652.78;;;-8.21;73.02
59194;BME280;44967;48.598;15.650;2024-01-10T08:26:59;99654.75;;;-8.17;73.30
59194;BME280;44967;48.598;15.650;2024-01-10T08:29:24;99652.19;;;-8.17;73.93
59194;BME280;44967;48.598;15.650;2024-01-10T08:31:56;99660.19;;;-7.99;72.55
59194;BME280;44967;48.598;15.650;2024-01-10T08:34:22;99657.50;;;-7.88;72.04
59194;BME280;44967;48.598;15.650;2024-01-10T08:36:48;99659.97;;;-7.76;72.18
59194;BME280;44967;48.598;15.650;2024-01-10T08:39:17;99663.09;;;-7.67;72.27
59194;BME280;44967;48.598;15.650;2024-01-10T08:41:43;99661.22;;;-7.70;72.54
59194;BME280;44967;48.598;15.650;2024-01-10T08:44:10;99667.41;;;-7.53;72.01
59194;BME280;44967;48.598;15.650;2024-01-10T08:46:36;99663.41;;;-7.63;71.10
59194;BME280;44967;48.598;15.650;2024-01-10T08:49:02;99662.44;;;-7.37;71.37
59194;BME280;44967;48.598;15.650;2024-01-10T08:51:28;99662.28;;;-7.25;70.86
59194;BME280;44967;48.598;15.650;2024-01-10T08:53:54;99666.34;;;-7.29;70.41
59194;BME280;44967;48.598;15.650;2024-01-10T08:56:20;99660.72;;;-7.23;70.20
59194;BME280;44967;48.598;15.650;2024-01-10T08:58:45;99661.84;;;-7.18;70.26
59194;BME280;44967;48.598;15.650;2024-01-10T09:01:11;99661.41;;;-7.11;70.50
59194;BME280;44967;48.598;15.650;2024-01-10T09:03:37;99655.94;;;-7.02;70.46
59194;BME280;44967;48.598;15.650;2024-01-10T09:06:05;99648.19;;;-6.89;69.65
59194;BME280;44967;48.598;15.650;2024-01-10T09:08:36;99647.47;;;-7.01;69.41
59194;BME280;44967;48.598;15.650;2024-01-10T09:11:02;99655.38;;;-6.84;69.88
59194;BME280;44967;48.598;15.650;2024-01-10T09:13:29;99651.72;;;-6.87;70.14
59194;BME280;44967;48.598;15.650;2024-01-10T09:15:55;99656.00;;;-6.58;69.57
59194;BME280;44967;48.598;15.650;2024-01-10T09:18:21;99650.34;;;-6.53;70.71
59194;BME280;44967;48.598;15.650;2024-01-10T09:20:46;99654.09;;;-6.48;70.51
59194;BME280;44967;48.598;15.650;2024-01-10T09:23:13;99653.69;;;-6.39;70.24
59194;BME280;44967;48.598;15.650;2024-01-10T09:25:40;99650.69;;;-6.17;70.25
59194;BME280;44967;48.598;15.650;2024-01-10T09:28:06;99651.56;;;-6.32;69.55
59194;BME280;44967;48.598;15.650;2024-01-10T09:30:31;99649.97;;;-6.30;69.43
59194;BME280;44967;48.598;15.650;2024-01-10T09:32:57;99648.28;;;-6.29;70.08
59194;BME280;44967;48.598;15.650;2024-01-10T09:35:24;99646.22;;;-6.20;69.70
59194;BME280;44967;48.598;15.650;2024-01-10T09:37:50;99642.69;;;-6.22;69.76
59194;BME280;44967;48.598;15.650;2024-01-10T09:40:16;99645.16;;;-6.09;69.86
59194;BME280;44967;48.598;15.650;2024-01-10T09:42:45;99637.50;;;-5.93;69.53
59194;BME280;44967;48.598;15.650;2024-01-10T09:45:15;99639.47;;;-6.03;70.10
59194;BME280;44967;48.598;15.650;2024-01-10T09:47:43;99640.53;;;-5.84;69.73
59194;BME280;44967;48.598;15.650;2024-01-10T09:50:11;99633.31;;;-5.91;69.57
59194;BME280;44967;48.598;15.650;2024-01-10T09:52:44;99637.09;;;-5.68;70.16
59194;BME280;44967;48.598;15.650;2024-01-10T09:55:15;99629.16;;;-5.56;69.74
59194;BME280;44967;48.598;15.650;2024-01-10T09:57:42;99631.66;;;-5.58;69.54
59194;BME280;44967;48.598;15.650;2024-01-10T10:00:11;99626.44;;;-5.43;69.87
59194;BME280;44967;48.598;15.650;2024-01-10T10:02:38;99630.56;;;-5.47;69.21
59194;BME280;44967;48.598;15.650;2024-01-10T10:07:47;99624.53;;;-5.31;70.12
59194;BME280;44967;48.598;15.650;2024-01-10T10:10:13;99628.69;;;-5.33;70.00
59194;BME280;44967;48.598;15.650;2024-01-10T10:15:17;99615.34;;;-5.10;69.62
59194;BME280;44967;48.598;15.650;2024-01-10T10:17:46;99611.47;;;-5.02;70.05
59194;BME280;44967;48.598;15.650;2024-01-10T10:22:41;99606.38;;;-4.84;69.69
59194;BME280;44967;48.598;15.650;2024-01-10T10:25:17;99600.66;;;-4.79;70.26
59194;BME280;44967;48.598;15.650;2024-01-10T10:27:42;99586.88;;;-4.61;69.57
59194;BME280;44967;48.598;15.650;2024-01-10T10:30:08;99594.84;;;-4.57;69.39
59194;BME280;44967;48.598;15.650;2024-01-10T10:32:34;99593.81;;;-4.60;69.14
59194;BME280;44967;48.598;15.650;2024-01-10T10:35:00;99585.94;;;-4.63;69.42
59194;BME280;44967;48.598;15.650;2024-01-10T10:37:26;99580.78;;;-4.63;70.15
59194;BME280;44967;48.598;15.650;2024-01-10T10:39:51;99571.72;;;-4.55;70.12
59194;BME280;44967;48.598;15.650;2024-01-10T10:42:17;99582.56;;;-4.45;70.27
59194;BME280;44967;48.598;15.650;2024-01-10T10:44:45;99577.50;;;-4.43;70.12
59194;BME280;44967;48.598;15.650;2024-01-10T10:47:12;99578.16;;;-4.47;70.13
59194;BME280;44967;48.598;15.650;2024-01-10T10:49:53;99583.31;;;-4.47;70.52
59194;BME280;44967;48.598;15.650;2024-01-10T10:52:23;99571.66;;;-4.39;70.67
59194;BME280;44967;48.598;15.650;2024-01-10T10:54:50;99570.34;;;-4.31;70.29
59194;BME280;44967;48.598;15.650;2024-01-10T10:57:21;99563.38;;;-4.14;70.60
59194;BME280;44967;48.598;15.650;2024-01-10T10:59:48;99575.44;;;-4.15;70.94
59194;BME280;44967;48.598;15.650;2024-01-10T11:02:21;99564.28;;;-4.14;69.60
59194;BME280;44967;48.598;15.650;2024-01-10T11:04:50;99565.59;;;-4.04;70.42
59194;BME280;44967;48.598;15.650;2024-01-10T11:07:19;99566.03;;;-3.95;69.49
59194;BME280;44967;48.598;15.650;2024-01-10T11:09:47;99563.91;;;-4.04;69.37
59194;BME280;44967;48.598;15.650;2024-01-10T11:26:04;99543.88;;;-3.90;69.79
59194;BME280;44967;48.598;15.650;2024-01-10T11:28:31;99531.28;;;-4.02;69.93
59194;BME280;44967;48.598;15.650;2024-01-10T11:30:59;99533.78;;;-3.86;70.18
59194;BME280;44967;48.598;15.650;2024-01-10T11:33:30;99529.94;;;-3.76;70.90
59194;BME280;44967;48.598;15.650;2024-01-10T11:36:16;99526.72;;;-3.70;69.98
59194;BME280;44967;48.598;15.650;2024-01-10T11:38:44;99519.84;;;-3.89;70.08
59194;BME280;44967;48.598;15.650;2024-01-10T11:41:11;99528.69;;;-3.84;70.40
59194;BME280;44967;48.598;15.650;2024-01-10T11:43:39;99519.09;;;-3.87;69.94
59194;BME280;44967;48.598;15.650;2024-01-10T11:46:05;99522.41;;;-3.71;70.14
59194;BME280;44967;48.598;15.650;2024-01-10T11:48:32;99513.69;;;-3.54;69.96
59194;BME280;44967;48.598;15.650;2024-01-10T11:50:59;99524.22;;;-3.50;69.54
59194;BME280;44967;48.598;15.650;2024-01-10T11:53:43;99515.44;;;-3.53;69.54
59194;BME280;44967;48.598;15.650;2024-01-10T11:56:13;99508.50;;;-3.35;70.00
59194;BME280;44967;48.598;15.650;2024-01-10T11:59:01;99501.16;;;-3.26;69.46
59194;BME280;44967;48.598;15.650;2024-01-10T12:01:29;99500.13;;;-3.29;69.19
59194;BME280;44967;48.598;15.650;2024-01-10T12:03:56;99505.44;;;-3.26;70.06
59194;BME280;44967;48.598;15.650;2024-01-10T12:06:24;99494.38;;;-3.24;69.79
59194;BME280;44967;48.598;15.650;2024-01-10T12:08:51;99488.22;;;-3.26;69.44
59194;BME280;44967;48.598;15.650;2024-01-10T12:11:17;99487.25;;;-3.09;69.96
59194;BME280;44967;48.598;15.650;2024-01-10T12:13:44;99476.22;;;-3.05;69.81
59194;BME280;44967;48.598;15.650;2024-01-10T12:16:12;99485.41;;;-2.91;69.89
59194;BME280;44967;48.598;15.650;2024-01-10T12:18:42;99487.69;;;-2.77;70.15
59194;BME280;44967;48.598;15.650;2024-01-10T12:21:08;99483.41;;;-2.77;69.89
59194;BME280;44967;48.598;15.650;2024-01-10T12:23:38;99484.84;;;-2.83;70.21
59194;BME280;44967;48.598;15.650;2024-01-10T12:26:07;99491.22;;;-2.75;69.84
59194;BME280;44967;48.598;15.650;2024-01-10T12:28:35;99476.66;;;-2.73;70.30
59194;BME280;44967;48.598;15.650;2024-01-10T12:31:03;99477.00;;;-2.64;70.00
59194;BME280;44967;48.598;15.650;2024-01-10T12:33:30;99474.81;;;-2.55;69.54
59194;BME280;44967;48.598;15.650;2024-01-10T12:36:10;99469.03;;;-2.70;69.13
59194;BME280;44967;48.598;15.650;2024-01-10T12:38:37;99479.25;;;-2.73;69.93
59194;BME280;44967;48.598;15.650;2024-01-10T12:41:04;99472.72;;;-2.64;70.20
59194;BME280;44967;48.598;15.650;2024-01-10T12:43:31;99476.41;;;-2.79;69.51
59194;BME280;44967;48.598;15.650;2024-01-10T12:46:12;99468.53;;;-2.82;70.09
59194;BME280;44967;48.598;15.650;2024-01-10T12:48:39;99468.75;;;-2.76;69.40
59194;BME280;44967;48.598;15.650;2024-01-10T12:51:10;99469.91;;;-2.70;70.57
59194;BME280;44967;48.598;15.650;2024-01-10T12:53:42;99465.13;;;-2.61;70.51
59194;BME280;44967;48.598;15.650;2024-01-10T12:56:09;99457.66;;;-2.53;69.53
59194;BME280;44967;48.598;15.650;2024-01-10T12:58:40;99458.88;;;-2.44;70.40
59194;BME280;44967;48.598;15.650;2024-01-10T13:01:09;99457.38;;;-2.59;70.28
59194;BME280;44967;48.598;15.650;2024-01-10T13:03:35;99462.28;;;-2.45;71.07
59194;BME280;44967;48.598;15.650;2024-01-10T13:06:01;99452.22;;;-2.59;70.37
59194;BME280;44967;48.598;15.650;2024-01-10T13:08:27;99465.97;;;-2.60;70.12